createdAt,value
2019-05-13T00:00:55.461Z,6.38
2019-05-13T00:03:30.651Z,6.45
2019-05-13T00:06:05.590Z,6.32
2019-05-13T00:08:40.664Z,6.40
2019-05-13T00:11:16.344Z,6.28
2019-05-13T00:13:53.237Z,6.38
2019-05-13T00:16:48.337Z,6.30
2019-05-13T00:19:23.493Z,6.19
2019-05-13T00:21:59.358Z,6.14
2019-05-13T00:24:34.461Z,6.02
2019-05-13T00:27:10.253Z,5.89
2019-05-13T00:29:45.270Z,5.88
2019-05-13T00:32:23.603Z,5.97
2019-05-13T00:34:57.994Z,5.91
2019-05-13T00:37:33.490Z,5.73
2019-05-13T00:40:08.836Z,5.68
2019-05-13T00:42:44.362Z,5.71
2019-05-13T00:45:19.406Z,5.81
2019-05-13T00:47:54.703Z,5.65
2019-05-13T00:50:29.658Z,5.75
2019-05-13T00:53:04.683Z,5.65
2019-05-13T00:55:41.079Z,5.72
2019-05-13T00:58:16.823Z,5.62
2019-05-13T01:00:54.424Z,5.41
2019-05-13T01:03:29.792Z,5.49
2019-05-13T01:06:05.520Z,5.49
2019-05-13T01:08:40.662Z,5.26
2019-05-13T01:11:15.626Z,5.41
2019-05-13T01:13:53.471Z,5.14
2019-05-13T01:16:33.918Z,5.15
2019-05-13T01:19:10.080Z,5.13
2019-05-13T01:21:45.755Z,5.23
2019-05-13T01:24:20.773Z,5.18
2019-05-13T01:26:58.870Z,5.11
2019-05-13T01:29:34.515Z,5.17
2019-05-13T01:32:09.702Z,5.26
2019-05-13T01:34:44.659Z,5.38
2019-05-13T01:37:20.376Z,5.47
2019-05-13T01:39:55.472Z,5.25
2019-05-13T01:42:33.533Z,5.29
2019-05-13T01:45:13.481Z,5.21
2019-05-13T01:48:18.803Z,5.34
2019-05-13T01:50:59.638Z,5.24
2019-05-13T01:53:35.329Z,5.13
2019-05-13T01:56:11.073Z,5.09
2019-05-13T01:58:46.794Z,5.18
2019-05-13T02:01:24.137Z,5.19
2019-05-13T02:04:00.216Z,5.10
2019-05-13T02:06:36.024Z,5.07
2019-05-13T02:09:14.003Z,5.13
2019-05-13T02:11:50.488Z,5.04
2019-05-13T02:14:55.428Z,4.98
2019-05-13T02:17:31.149Z,5.19
2019-05-13T02:20:07.332Z,5.23
2019-05-13T02:22:44.432Z,5.10
2019-05-13T02:25:34.056Z,5.18
2019-05-13T02:28:10.693Z,5.19
2019-05-13T02:30:46.336Z,5.28
2019-05-13T02:33:23.052Z,5.40
2019-05-13T02:35:58.226Z,5.35
2019-05-13T02:38:35.750Z,5.38
2019-05-13T02:41:13.426Z,5.31
2019-05-13T02:43:48.345Z,5.26
2019-05-13T02:46:24.412Z,5.36
2019-05-13T02:48:59.372Z,5.24
2019-05-13T02:51:36.035Z,5.08
2019-05-13T02:54:12.622Z,5.04
2019-05-13T02:56:48.512Z,5.03
2019-05-13T02:59:24.263Z,4.85
2019-05-13T03:02:03.249Z,4.70
2019-05-13T03:04:37.203Z,4.80
2019-05-13T03:07:12.993Z,4.69
2019-05-13T03:09:48.782Z,4.67
2019-05-13T03:12:23.889Z,4.52
2019-05-13T03:15:02.718Z,4.58
2019-05-13T03:21:48.602Z,4.51
2019-05-13T03:24:23.620Z,4.60
2019-05-13T03:26:58.608Z,4.50
2019-05-13T03:29:34.374Z,4.50
2019-05-13T03:32:15.378Z,4.49
2019-05-13T03:34:47.121Z,4.59
2019-05-13T03:40:58.555Z,4.60
2019-05-13T03:48:13.937Z,4.29
2019-05-13T03:50:49.042Z,4.20
2019-05-13T04:02:09.244Z,4.46
2019-05-13T04:05:22.896Z,4.56
2019-05-13T04:13:06.866Z,4.74
2019-05-13T04:15:42.967Z,4.60
2019-05-13T04:18:18.937Z,4.72
2019-05-13T04:20:54.723Z,4.68
2019-05-13T04:23:32.268Z,4.75
2019-05-13T04:26:17.222Z,5.00
2019-05-13T04:28:53.685Z,4.99
2019-05-13T04:31:29.348Z,5.07
2019-05-13T04:34:04.518Z,5.22
2019-05-13T04:36:42.762Z,5.40
2019-05-13T04:39:35.202Z,5.51
2019-05-13T04:41:54.653Z,5.66
2019-05-13T04:44:32.474Z,5.87
2019-05-13T04:47:07.253Z,5.97
2019-05-13T04:49:43.136Z,6.03
2019-05-13T04:52:22.210Z,6.16
2019-05-13T04:54:57.238Z,6.38
2019-05-13T04:57:33.427Z,6.43
2019-05-13T05:00:12.628Z,6.55
2019-05-13T05:03:44.586Z,6.71
2019-05-13T05:07:06.098Z,6.70
2019-05-13T05:10:44.643Z,6.70
2019-05-13T05:14:17.996Z,6.91
2019-05-13T05:17:32.763Z,7.10
2019-05-13T05:20:41.824Z,7.27
2019-05-13T05:24:11.458Z,7.01
2019-05-13T05:27:41.821Z,7.35
2019-05-13T05:31:16.018Z,7.62
2019-05-13T05:34:51.876Z,7.76
2019-05-13T05:38:07.785Z,7.78
2019-05-13T05:40:47.212Z,7.95
2019-05-13T05:43:23.746Z,8.08
2019-05-13T05:46:01.781Z,8.22
2019-05-13T05:48:41.991Z,8.31
2019-05-13T05:51:19.118Z,8.34
2019-05-13T05:53:56.576Z,8.68
2019-05-13T05:56:34.244Z,8.81
2019-05-13T05:59:12.447Z,8.68
2019-05-13T06:01:52.693Z,8.76
2019-05-13T06:04:28.492Z,8.92
2019-05-13T06:07:04.811Z,9.05
2019-05-13T06:09:42.203Z,9.50
2019-05-13T06:12:16.826Z,9.71
2019-05-13T06:14:52.563Z,9.86
2019-05-13T06:17:27.834Z,9.87
2019-05-13T06:20:04.369Z,10.08
2019-05-13T06:22:39.817Z,10.23
2019-05-13T06:25:15.023Z,10.39
2019-05-13T06:27:51.224Z,10.56
2019-05-13T06:30:26.412Z,10.69
2019-05-13T06:33:01.727Z,10.71
2019-05-13T06:35:36.741Z,10.79
2019-05-13T06:38:11.970Z,10.69
2019-05-13T06:40:59.338Z,10.68
2019-05-13T06:43:23.900Z,10.62
2019-05-13T06:45:59.094Z,10.70
2019-05-13T06:48:34.128Z,10.80
2019-05-13T06:51:11.507Z,10.95
2019-05-13T06:53:45.979Z,10.98
2019-05-13T06:56:21.763Z,10.94
2019-05-13T06:58:58.115Z,11.02
2019-05-13T07:01:33.593Z,11.07
2019-05-13T07:04:11.665Z,11.21
2019-05-13T07:06:46.843Z,11.46
2019-05-13T07:09:21.821Z,11.37
2019-05-13T07:11:57.156Z,11.35
2019-05-13T07:14:32.975Z,11.35
2019-05-13T07:17:07.985Z,11.35
2019-05-13T07:19:43.021Z,11.27
2019-05-13T07:22:18.219Z,11.40
2019-05-13T07:24:53.264Z,11.56
2019-05-13T07:27:31.654Z,11.68
2019-05-13T07:30:06.318Z,11.56
2019-05-13T07:32:42.180Z,11.77
2019-05-13T07:35:17.254Z,11.90
2019-05-13T07:37:52.228Z,11.96
2019-05-13T07:40:27.550Z,12.16
2019-05-13T07:43:03.491Z,12.21
2019-05-13T07:45:39.169Z,12.15
2019-05-13T07:48:21.117Z,12.31
2019-05-13T07:50:59.565Z,12.27
2019-05-13T07:53:27.736Z,12.49
2019-05-13T07:56:02.828Z,12.55
2019-05-13T07:58:37.922Z,12.59
2019-05-13T08:01:12.975Z,12.60
2019-05-13T08:03:48.023Z,12.75
2019-05-13T08:06:23.000Z,12.66
2019-05-13T08:09:01.500Z,12.97
2019-05-13T08:11:54.552Z,13.11
2019-05-13T08:14:12.826Z,13.19
2019-05-13T08:16:47.904Z,13.27
2019-05-13T08:19:22.962Z,13.38
2019-05-13T08:21:58.133Z,13.51
2019-05-13T08:24:33.426Z,13.61
2019-05-13T08:27:08.495Z,13.62
2019-05-13T08:29:43.540Z,13.68
2019-05-13T08:32:18.552Z,13.51
2019-05-13T08:35:01.466Z,13.63
2019-05-13T08:37:32.088Z,13.77
2019-05-13T08:40:08.032Z,13.77
2019-05-13T08:42:43.112Z,13.87
2019-05-13T08:45:19.169Z,14.08
2019-05-13T08:47:54.184Z,13.91
2019-05-13T08:50:29.238Z,14.10
2019-05-13T08:53:04.211Z,13.93
2019-05-13T08:55:39.379Z,13.75
2019-05-13T08:58:15.090Z,14.09
2019-05-13T09:00:53.402Z,14.31
2019-05-13T09:03:28.413Z,14.52
2019-05-13T09:06:03.872Z,14.45
2019-05-13T09:08:38.963Z,14.30
2019-05-13T09:11:14.033Z,14.50
2019-05-13T09:13:51.428Z,14.95
2019-05-13T09:16:25.953Z,15.02
2019-05-13T09:19:03.719Z,15.01
2019-05-13T09:21:38.062Z,15.10
2019-05-13T09:24:25.300Z,15.28
2019-05-13T09:26:52.432Z,15.24
2019-05-13T09:29:26.521Z,15.15
2019-05-13T09:32:03.858Z,15.10
2019-05-13T09:34:38.498Z,14.63
2019-05-13T09:37:13.622Z,14.71
2019-05-13T09:39:51.461Z,14.91
2019-05-13T09:42:26.550Z,15.18
2019-05-13T09:45:02.313Z,15.21
2019-05-13T09:47:37.495Z,14.52
2019-05-13T09:50:28.706Z,14.30
2019-05-13T09:52:51.726Z,14.54
2019-05-13T09:55:29.366Z,14.71
2019-05-13T09:58:03.690Z,15.01
2019-05-13T10:00:41.856Z,15.16
2019-05-13T10:03:15.616Z,15.53
2019-05-13T10:05:51.878Z,15.62
2019-05-13T10:08:27.021Z,15.61
2019-05-13T10:11:02.318Z,16.05
2019-05-13T10:13:37.300Z,15.87
2019-05-13T10:16:12.794Z,15.01
2019-05-13T10:18:47.826Z,14.69
2019-05-13T10:21:22.900Z,14.86
2019-05-13T10:23:58.905Z,15.19
2019-05-13T10:26:35.600Z,15.36
2019-05-13T10:29:11.950Z,15.56
2019-05-13T10:31:48.289Z,15.49
2019-05-13T10:34:23.492Z,15.45
2019-05-13T10:36:59.106Z,15.84
2019-05-13T10:39:35.298Z,15.91
2019-05-13T10:42:12.223Z,15.80
2019-05-13T10:44:47.475Z,15.02
2019-05-13T10:47:22.945Z,15.01
2019-05-13T10:49:58.141Z,15.24
2019-05-13T10:52:33.579Z,15.97
2019-05-13T10:55:09.286Z,16.37
2019-05-13T10:57:45.669Z,16.76
2019-05-13T11:00:36.800Z,16.97
2019-05-13T11:03:12.462Z,16.52
2019-05-13T11:05:52.196Z,16.44
2019-05-13T11:08:28.139Z,15.87
2019-05-13T11:11:04.066Z,16.12
2019-05-13T11:13:54.032Z,16.66
2019-05-13T11:16:15.670Z,16.91
2019-05-13T11:18:51.892Z,17.23
2019-05-13T11:21:27.168Z,17.49
2019-05-13T11:24:04.655Z,18.11
2019-05-13T11:26:41.801Z,18.98
2019-05-13T11:29:16.870Z,19.41
2019-05-13T11:31:52.787Z,19.57
2019-05-13T11:34:28.882Z,20.43
2019-05-13T11:37:04.004Z,20.76
2019-05-13T11:39:39.076Z,19.91
2019-05-13T11:42:14.231Z,19.35
2019-05-13T11:44:52.772Z,19.10
2019-05-13T11:47:31.814Z,19.54
2019-05-13T11:50:06.446Z,18.79
2019-05-13T11:52:42.582Z,18.99
2019-05-13T11:55:22.467Z,19.54
2019-05-13T11:57:56.039Z,20.02
2019-05-13T12:01:02.587Z,20.18
2019-05-13T12:03:38.263Z,21.02
2019-05-13T12:06:13.755Z,20.21
2019-05-13T12:08:52.182Z,20.64
2019-05-13T12:11:25.619Z,20.96
2019-05-13T12:14:00.696Z,21.39
2019-05-13T12:16:35.981Z,20.71
2019-05-13T12:19:11.974Z,20.53
2019-05-13T12:21:47.319Z,20.78
2019-05-13T12:24:22.900Z,21.12
2019-05-13T12:26:58.011Z,19.82
2019-05-13T12:29:33.502Z,20.35
2019-05-13T12:32:12.587Z,20.68
2019-05-13T12:34:46.104Z,20.81
2019-05-13T12:37:22.101Z,21.38
2019-05-13T12:39:57.233Z,21.08
2019-05-13T12:42:33.765Z,21.51
2019-05-13T12:45:10.943Z,20.21
2019-05-13T12:47:46.099Z,18.77
2019-05-13T12:50:23.955Z,17.61
2019-05-13T12:53:02.547Z,18.41
2019-05-13T12:55:38.099Z,18.61
2019-05-13T12:58:13.117Z,20.04
2019-05-13T13:00:48.417Z,20.81
2019-05-13T13:03:24.156Z,21.21
2019-05-13T13:06:22.749Z,21.83
2019-05-13T13:08:43.680Z,21.77
2019-05-13T13:11:13.111Z,22.44
2019-05-13T13:13:59.333Z,21.68
2019-05-13T13:16:33.259Z,21.40
2019-05-13T13:19:03.668Z,19.97
2019-05-13T13:21:39.819Z,18.33
2019-05-13T13:24:14.808Z,18.30
2019-05-13T13:26:52.573Z,19.75
2019-05-13T13:29:26.627Z,20.84
2019-05-13T13:32:02.891Z,21.20
2019-05-13T13:34:38.329Z,21.38
2019-05-13T13:37:13.325Z,22.15
2019-05-13T13:39:48.812Z,22.05
2019-05-13T13:42:23.942Z,22.39
2019-05-13T13:44:59.141Z,22.51
2019-05-13T13:47:35.133Z,22.37
2019-05-13T13:50:11.792Z,22.66
2019-05-13T13:52:47.663Z,22.23
2019-05-13T13:55:25.856Z,22.30
2019-05-13T13:58:01.686Z,20.97
2019-05-13T14:00:49.084Z,19.80
2019-05-13T14:03:13.159Z,21.85
2019-05-13T14:05:52.585Z,21.80
2019-05-13T14:08:25.995Z,20.17
2019-05-13T14:11:02.168Z,21.24
2019-05-13T14:13:37.218Z,22.75
2019-05-13T14:16:24.589Z,23.42
2019-05-13T14:18:48.981Z,21.88
2019-05-13T14:21:25.247Z,21.55
2019-05-13T14:24:02.450Z,20.61
2019-05-13T14:26:36.878Z,19.62
2019-05-13T14:29:12.429Z,18.65
2019-05-13T14:31:47.754Z,18.26
2019-05-13T14:34:22.742Z,18.05
2019-05-13T14:36:57.911Z,18.05
2019-05-13T14:39:35.994Z,18.03
2019-05-13T14:42:11.581Z,17.70
2019-05-13T14:44:46.746Z,17.17
2019-05-13T14:47:21.922Z,16.76
2019-05-13T14:49:57.081Z,16.46
2019-05-13T14:52:32.380Z,16.22
2019-05-13T14:55:08.073Z,16.35
2019-05-13T14:57:43.081Z,16.46
2019-05-13T15:00:22.245Z,16.22
2019-05-13T15:02:58.302Z,16.26
2019-05-13T15:05:33.543Z,16.18
2019-05-13T15:08:08.617Z,16.66
2019-05-13T15:10:44.005Z,16.64
2019-05-13T15:13:18.967Z,16.23
2019-05-13T15:15:53.961Z,15.66
2019-05-13T15:18:28.909Z,15.59
2019-05-13T15:21:04.191Z,15.58
2019-05-13T15:23:39.137Z,15.89
2019-05-13T15:26:14.227Z,15.47
2019-05-13T15:28:51.159Z,15.50
2019-05-13T15:31:26.003Z,15.73
2019-05-13T15:34:02.585Z,16.02
2019-05-13T15:36:38.894Z,16.28
2019-05-13T15:39:13.871Z,16.15
2019-05-13T15:41:48.865Z,16.01
2019-05-13T15:44:32.305Z,15.81
2019-05-13T15:47:22.418Z,15.92
2019-05-13T15:49:44.374Z,15.67
2019-05-13T15:52:22.444Z,15.69
2019-05-13T15:54:56.220Z,15.44
2019-05-13T15:57:31.907Z,15.27
2019-05-13T16:00:12.381Z,15.13
2019-05-13T16:02:47.171Z,15.45
2019-05-13T16:05:22.166Z,15.43
2019-05-13T16:07:57.199Z,15.15
2019-05-13T16:10:32.398Z,15.30
2019-05-13T16:13:07.367Z,15.26
2019-05-13T16:15:42.470Z,15.48
2019-05-13T16:18:17.455Z,15.42
2019-05-13T16:20:52.693Z,15.52
2019-05-13T16:23:27.827Z,15.27
2019-05-13T16:26:02.946Z,14.97
2019-05-13T16:28:37.952Z,14.93
2019-05-13T16:31:13.083Z,15.21
2019-05-13T16:33:48.039Z,15.15
2019-05-13T16:36:23.072Z,15.16
2019-05-13T16:38:58.050Z,15.44
2019-05-13T16:41:33.659Z,15.13
2019-05-13T16:44:08.675Z,14.89
2019-05-13T16:46:43.703Z,15.12
2019-05-13T16:49:21.137Z,15.27
2019-05-13T16:51:55.473Z,15.25
2019-05-13T16:54:32.941Z,15.14
2019-05-13T16:57:09.177Z,15.13
2019-05-13T16:59:44.351Z,14.74
2019-05-13T17:02:20.142Z,14.39
2019-05-13T17:04:55.128Z,14.32
2019-05-13T17:07:31.766Z,14.38
2019-05-13T17:10:08.227Z,14.12
2019-05-13T17:12:43.271Z,14.13
2019-05-13T17:15:21.115Z,13.95
2019-05-13T17:18:08.238Z,14.04
2019-05-13T17:20:33.311Z,14.30
2019-05-13T17:23:08.401Z,14.40
2019-05-13T17:25:43.465Z,14.91
2019-05-13T17:28:18.473Z,14.73
2019-05-13T17:30:53.515Z,14.50
2019-05-13T17:33:32.045Z,14.45
2019-05-13T17:36:07.201Z,14.26
2019-05-13T17:38:42.398Z,14.34
2019-05-13T17:41:17.385Z,14.48
2019-05-13T17:43:52.373Z,13.88
2019-05-13T17:46:28.513Z,13.79
2019-05-13T17:49:06.815Z,14.17
2019-05-13T17:51:42.533Z,14.44
2019-05-13T17:54:17.804Z,14.29
2019-05-13T17:56:52.821Z,13.88
2019-05-13T17:59:27.841Z,13.68
2019-05-13T18:02:02.979Z,13.61
2019-05-13T18:04:38.705Z,13.56
2019-05-13T18:07:13.777Z,13.45
2019-05-13T18:09:48.748Z,13.59
2019-05-13T18:12:23.787Z,13.85
2019-05-13T18:14:58.850Z,13.75
2019-05-13T18:17:33.875Z,13.32
2019-05-13T18:20:09.251Z,12.62
2019-05-13T18:22:44.349Z,12.21
2019-05-13T18:25:22.289Z,11.89
2019-05-13T18:27:57.241Z,11.73
2019-05-13T18:30:32.341Z,11.71
2019-05-13T18:33:08.929Z,11.75
2019-05-13T18:35:43.896Z,11.55
2019-05-13T18:38:21.057Z,11.57
2019-05-13T18:40:56.438Z,11.47
2019-05-13T18:43:33.227Z,11.61
2019-05-13T18:46:08.354Z,11.59
2019-05-13T18:48:58.100Z,11.48
2019-05-13T18:51:21.172Z,11.29
2019-05-13T18:53:56.321Z,11.17
2019-05-13T18:56:32.293Z,11.27
2019-05-13T18:59:08.439Z,11.20
2019-05-13T19:01:43.566Z,11.27
2019-05-13T19:04:21.656Z,11.15
2019-05-13T19:06:56.221Z,11.10
2019-05-13T19:09:31.298Z,10.97
2019-05-13T19:12:06.370Z,11.04
2019-05-13T19:14:41.563Z,11.10
2019-05-13T19:17:16.575Z,11.13
2019-05-13T19:19:51.599Z,11.20
2019-05-13T19:22:26.716Z,11.31
2019-05-13T19:25:03.125Z,11.17
2019-05-13T19:27:38.159Z,11.17
2019-05-13T19:30:13.478Z,11.13
2019-05-13T19:32:48.829Z,11.09
2019-05-13T19:35:23.802Z,10.76
2019-05-13T19:38:01.486Z,10.94
2019-05-13T19:40:35.724Z,10.88
2019-05-13T19:43:11.522Z,10.67
2019-05-13T19:45:47.901Z,10.65
2019-05-13T19:48:23.119Z,10.66
2019-05-13T19:51:01.568Z,10.75
2019-05-13T19:53:36.586Z,10.69
2019-05-13T19:56:11.952Z,10.66
2019-05-13T19:58:47.232Z,10.54
2019-05-13T20:01:22.355Z,10.54
2019-05-13T20:03:57.383Z,10.49
2019-05-13T20:06:32.473Z,10.54
2019-05-13T20:09:08.701Z,10.54
2019-05-13T20:11:43.841Z,10.51
2019-05-13T20:14:18.928Z,10.43
2019-05-13T20:16:53.974Z,10.28
2019-05-13T20:19:42.739Z,10.15
2019-05-13T20:22:05.591Z,10.08
2019-05-13T20:24:41.959Z,10.10
2019-05-13T20:27:17.039Z,9.96
2019-05-13T20:29:52.004Z,9.90
2019-05-13T20:32:26.940Z,9.83
2019-05-13T20:35:02.276Z,9.81
2019-05-13T20:37:37.555Z,9.88
2019-05-13T20:40:12.863Z,9.80
2019-05-13T20:42:48.834Z,9.83
2019-05-13T20:45:23.913Z,9.94
2019-05-13T20:48:01.316Z,9.88
2019-05-13T20:50:35.555Z,9.89
2019-05-13T20:53:11.548Z,9.93
2019-05-13T20:55:46.743Z,9.80
2019-05-13T20:58:21.782Z,9.80
2019-05-13T21:00:56.818Z,9.67
2019-05-13T21:03:32.089Z,9.54
2019-05-13T21:06:07.082Z,9.39
2019-05-13T21:08:42.042Z,9.39
2019-05-13T21:11:17.010Z,9.29
2019-05-13T21:13:51.969Z,9.43
2019-05-13T21:16:26.986Z,9.39
2019-05-13T21:19:02.031Z,9.45
2019-05-13T21:21:36.986Z,9.55
2019-05-13T21:24:11.932Z,9.42
2019-05-13T21:26:47.124Z,9.40
2019-05-13T21:29:22.081Z,9.43
2019-05-13T21:31:57.183Z,9.49
2019-05-13T21:34:32.217Z,9.35
2019-05-13T21:37:08.260Z,9.38
2019-05-13T21:39:43.229Z,9.45
2019-05-13T21:42:18.182Z,9.43
2019-05-13T21:44:53.151Z,9.40
2019-05-13T21:47:32.356Z,9.32
2019-05-13T21:50:07.804Z,9.24
2019-05-13T21:52:43.800Z,9.09
2019-05-13T21:55:18.732Z,9.10
2019-05-13T21:57:53.738Z,8.99
2019-05-13T22:00:33.570Z,9.07
2019-05-13T22:03:11.524Z,8.93
2019-05-13T22:05:46.172Z,9.02
2019-05-13T22:08:21.778Z,8.91
2019-05-13T22:10:56.986Z,8.91
2019-05-13T22:13:32.073Z,8.80
2019-05-13T22:16:07.108Z,8.79
2019-05-13T22:18:42.079Z,8.64
2019-05-13T22:21:17.053Z,8.62
2019-05-13T22:23:52.014Z,8.54
2019-05-13T22:26:26.970Z,8.57
2019-05-13T22:29:02.792Z,8.47
2019-05-13T22:31:37.946Z,8.46
2019-05-13T22:34:16.116Z,8.35
2019-05-13T22:36:54.164Z,8.36
2019-05-13T22:39:32.303Z,8.22
2019-05-13T22:42:05.980Z,8.16
2019-05-13T22:44:41.679Z,8.08
2019-05-13T22:47:17.934Z,8.04
2019-05-13T22:49:52.969Z,7.97
2019-05-13T22:52:28.213Z,8.01
2019-05-13T22:55:03.263Z,7.96
2019-05-13T22:57:38.236Z,7.86
2019-05-13T23:00:16.804Z,7.88
2019-05-13T23:02:53.494Z,7.78
2019-05-13T23:05:28.563Z,7.79
2019-05-13T23:08:03.626Z,7.82
2019-05-13T23:10:38.597Z,7.66
2019-05-13T23:13:13.584Z,7.71
2019-05-13T23:15:48.511Z,7.49
2019-05-13T23:18:23.570Z,7.49
2019-05-13T23:20:58.620Z,7.61
2019-05-13T23:23:34.436Z,7.61
2019-05-13T23:26:11.714Z,7.63
2019-05-13T23:28:46.185Z,7.55
2019-05-13T23:31:21.132Z,7.54
2019-05-13T23:33:58.200Z,7.50
2019-05-13T23:36:33.348Z,7.54
2019-05-13T23:39:11.441Z,7.60
2019-05-13T23:41:45.923Z,7.49
2019-05-13T23:44:27.028Z,7.54
2019-05-13T23:46:59.308Z,7.47
2019-05-13T23:49:34.483Z,7.49
2019-05-13T23:52:11.445Z,7.53
2019-05-13T23:54:46.137Z,7.60
2019-05-13T23:57:22.422Z,7.59
2019-05-13T23:59:57.472Z,7.60
